Airport View

Enter AWOS ICAO identifier for current METAR.

ex. KFNL

KHKY 191753Z 28007KT 10SM CLR 10/M10 A2994 RMK AO2 SLP132 T01001100 10100 20050 58004 $

19 Jan 2020 18:38

Frequency: 118.325

Phone: 828-322-2996

Other Area AWOS: KMRN - KIPJ - KSVH - KTNB

TAF KHKY 191723Z 1918/2018 28010KT P6SM SKC FM200000 33007KT P6SM SKC FM201100 35005KT P6SM FEW250